createdAt,value
2023-04-16T00:00:43.074Z,99570.56
2023-04-16T00:03:11.217Z,99567.13
2023-04-16T00:05:38.812Z,99556.72
2023-04-16T00:08:06.288Z,99560.13
2023-04-16T00:10:37.067Z,99564.53
2023-04-16T00:13:04.497Z,99565.34
2023-04-16T00:15:31.958Z,99565.34
2023-04-16T00:17:59.721Z,99558.47
2023-04-16T00:20:27.164Z,99558.53
2023-04-16T00:22:54.537Z,99562.84
2023-04-16T00:25:22.434Z,99558.53
2023-04-16T00:27:50.038Z,99562.91
2023-04-16T00:30:17.471Z,99565.50
2023-04-16T00:32:45.333Z,99562.03
2023-04-16T00:35:12.818Z,99560.31
2023-04-16T00:37:40.326Z,99568.13
2023-04-16T00:40:08.493Z,99569.00
2023-04-16T00:42:37.043Z,99573.47
2023-04-16T00:45:05.766Z,99568.22
2023-04-16T00:47:33.730Z,99569.09
2023-04-16T00:50:03.231Z,99569.97
2023-04-16T00:52:32.329Z,99564.81
2023-04-16T00:55:00.223Z,99564.81
2023-04-16T00:57:28.020Z,99568.31
2023-04-16T00:59:55.842Z,99575.19
2023-04-16T01:02:23.878Z,99573.47
2023-04-16T01:04:51.685Z,99568.34
2023-04-16T01:07:19.134Z,99572.69
2023-04-16T01:09:46.952Z,99572.66
2023-04-16T01:12:14.513Z,99579.63
2023-04-16T01:14:41.943Z,99570.09
2023-04-16T01:17:09.635Z,99580.50
2023-04-16T01:19:37.187Z,99573.56
2023-04-16T01:22:04.868Z,99573.63
2023-04-16T01:24:32.804Z,99574.47
2023-04-16T01:27:00.632Z,99577.03
2023-04-16T01:29:28.096Z,99573.56
2023-04-16T01:31:56.210Z,99580.50
2023-04-16T01:34:23.727Z,99583.13
2023-04-16T01:36:51.937Z,99584.81
2023-04-16T01:39:19.795Z,99574.44
2023-04-16T01:41:47.467Z,99573.53
2023-04-16T01:44:14.865Z,99568.38
2023-04-16T01:49:11.728Z,99570.09
2023-04-16T01:51:39.370Z,99579.63
2023-04-16T01:54:07.262Z,99571.84
2023-04-16T01:56:34.716Z,99577.06
2023-04-16T01:59:02.247Z,99587.44
2023-04-16T02:01:31.874Z,99582.28
2023-04-16T02:03:59.878Z,99583.97
2023-04-16T02:06:27.618Z,99582.22
2023-04-16T02:08:55.025Z,99579.66
2023-04-16T02:11:22.691Z,99588.31
2023-04-16T02:13:50.519Z,99583.13
2023-04-16T02:16:18.481Z,99589.19
2023-04-16T02:18:47.198Z,99591.78
2023-04-16T02:21:15.344Z,99593.53
2023-04-16T02:23:45.972Z,99591.78
2023-04-16T02:26:13.760Z,99603.88
2023-04-16T02:28:41.805Z,99598.75
2023-04-16T02:31:09.670Z,99599.56
2023-04-16T02:33:38.871Z,99599.59
2023-04-16T02:36:07.144Z,99594.38
2023-04-16T02:38:34.627Z,99596.16
2023-04-16T02:41:02.082Z,99596.09
2023-04-16T02:43:29.845Z,99599.59
2023-04-16T02:45:59.219Z,99602.19
2023-04-16T02:48:26.922Z,99595.25
2023-04-16T02:50:54.953Z,99597.84
2023-04-16T02:53:22.460Z,99605.66
2023-04-16T02:55:55.638Z,99603.94
2023-04-16T02:58:25.012Z,99597.00
2023-04-16T03:00:53.454Z,99603.06
2023-04-16T03:03:21.816Z,99604.78
2023-04-16T03:05:49.913Z,99613.44
2023-04-16T03:08:17.360Z,99605.66
2023-04-16T03:10:44.818Z,99603.06
2023-04-16T03:13:12.511Z,99607.41
2023-04-16T03:15:40.143Z,99605.66
2023-04-16T03:18:07.518Z,99601.31
2023-04-16T03:20:35.310Z,99610.84
2023-04-16T03:23:02.690Z,99606.50
2023-04-16T03:25:30.058Z,99602.19
2023-04-16T03:27:57.748Z,99609.12
2023-04-16T03:30:25.345Z,99620.37
2023-04-16T03:32:52.928Z,99623.84
2023-04-16T03:35:21.294Z,99631.62
2023-04-16T03:37:50.246Z,99634.25
2023-04-16T03:40:18.260Z,99646.34
2023-04-16T03:42:46.145Z,99641.16
2023-04-16T03:45:13.655Z,99642.00
2023-04-16T03:47:42.215Z,99645.47
2023-04-16T03:50:11.607Z,99650.69
2023-04-16T03:52:39.778Z,99652.41
2023-04-16T03:55:07.850Z,99665.37
2023-04-16T03:57:35.602Z,99662.78
2023-04-16T04:00:04.213Z,99667.13
2023-04-16T04:02:41.676Z,99662.81
2023-04-16T04:05:10.649Z,99661.06
2023-04-16T04:07:38.309Z,99661.06
2023-04-16T04:10:06.935Z,99666.25
2023-04-16T04:12:35.809Z,99664.56
2023-04-16T04:15:03.356Z,99655.91
2023-04-16T04:17:30.860Z,99664.53
2023-04-16T04:20:01.194Z,99654.16
2023-04-16T04:22:30.864Z,99656.75
2023-04-16T04:24:58.717Z,99673.19
2023-04-16T04:27:27.272Z,99676.69
2023-04-16T04:29:54.750Z,99682.75
2023-04-16T04:32:22.880Z,99687.06
2023-04-16T04:34:50.701Z,99689.66
2023-04-16T04:37:18.146Z,99688.78
2023-04-16T04:39:46.147Z,99685.31
2023-04-16T04:42:13.660Z,99688.81
2023-04-16T04:44:41.284Z,99686.22
2023-04-16T04:47:09.093Z,99684.47
2023-04-16T04:49:36.519Z,99683.63
2023-04-16T04:52:04.032Z,99680.16
2023-04-16T04:54:32.805Z,99688.84
2023-04-16T04:57:00.354Z,99685.38
2023-04-16T04:59:28.489Z,99686.22
2023-04-16T05:01:56.430Z,99694.00
2023-04-16T05:04:23.890Z,99693.12
2023-04-16T05:06:51.417Z,99694.84
2023-04-16T05:09:19.068Z,99698.28
2023-04-16T05:11:46.577Z,99690.50
2023-04-16T05:14:13.995Z,99698.31
2023-04-16T05:16:41.863Z,99697.47
2023-04-16T05:19:09.528Z,99694.81
2023-04-16T05:21:37.101Z,99690.47
2023-04-16T05:24:05.108Z,99700.88
2023-04-16T05:26:32.508Z,99703.50
2023-04-16T05:28:59.921Z,99714.75
2023-04-16T05:31:27.626Z,99707.78
2023-04-16T05:33:54.998Z,99708.66
2023-04-16T05:36:22.591Z,99706.06
2023-04-16T05:38:50.298Z,99712.94
2023-04-16T05:41:17.784Z,99705.16
2023-04-16T05:43:45.237Z,99707.78
2023-04-16T05:46:12.944Z,99711.22
2023-04-16T05:48:40.354Z,99712.94
2023-04-16T05:51:07.753Z,99712.00
2023-04-16T05:53:35.573Z,99704.13
2023-04-16T05:56:03.232Z,99715.44
2023-04-16T05:58:30.659Z,99717.16
2023-04-16T06:00:58.300Z,99714.44
2023-04-16T06:03:26.119Z,99724.84
2023-04-16T06:05:53.665Z,99723.88
2023-04-16T06:08:21.100Z,99716.03
2023-04-16T06:10:49.145Z,99727.37
2023-04-16T06:13:17.071Z,99729.94
2023-04-16T06:15:44.518Z,99731.75
2023-04-16T06:18:12.262Z,99729.03
2023-04-16T06:20:39.685Z,99728.91
2023-04-16T06:23:07.104Z,99735.00
2023-04-16T06:25:34.775Z,99722.78
2023-04-16T06:28:02.446Z,99728.88
2023-04-16T06:30:30.121Z,99721.75
2023-04-16T06:32:57.915Z,99724.34
2023-04-16T06:35:25.477Z,99731.16
2023-04-16T06:37:52.906Z,99728.38
2023-04-16T06:40:20.593Z,99721.34
2023-04-16T06:42:47.961Z,99724.59
2023-04-16T06:45:15.520Z,99726.06
2023-04-16T06:47:43.302Z,99727.37
2023-04-16T06:50:11.146Z,99718.56
2023-04-16T06:52:38.568Z,99718.66
2023-04-16T06:55:08.275Z,99721.81
2023-04-16T06:57:37.516Z,99716.25
2023-04-16T07:00:06.084Z,99712.44
2023-04-16T07:02:33.899Z,99716.28
2023-04-16T07:05:01.375Z,99715.94
2023-04-16T07:07:28.843Z,99710.63
2023-04-16T07:09:56.550Z,99709.44
2023-04-16T07:12:24.137Z,99721.38
2023-04-16T07:14:51.601Z,99718.75
2023-04-16T07:17:19.282Z,99715.12
2023-04-16T07:19:46.668Z,99715.34
2023-04-16T07:22:14.086Z,99712.91
2023-04-16T07:24:41.736Z,99710.66
2023-04-16T07:27:09.141Z,99712.50
2023-04-16T07:29:36.505Z,99712.94
2023-04-16T07:32:04.287Z,99719.75
2023-04-16T07:34:31.701Z,99722.16
2023-04-16T07:36:59.068Z,99714.91
2023-04-16T07:39:26.759Z,99717.28
2023-04-16T07:41:54.241Z,99718.53
2023-04-16T07:44:21.642Z,99721.44
2023-04-16T07:46:49.336Z,99711.13
2023-04-16T07:49:16.733Z,99714.09
2023-04-16T07:51:44.216Z,99716.94
2023-04-16T07:54:11.934Z,99718.13
2023-04-16T07:56:39.543Z,99723.44
2023-04-16T07:59:21.147Z,99724.69
2023-04-16T08:01:50.312Z,99718.97
2023-04-16T08:04:23.137Z,99723.31
2023-04-16T08:06:51.581Z,99720.16
2023-04-16T08:09:21.110Z,99717.00
2023-04-16T08:11:49.864Z,99713.78
2023-04-16T08:14:17.548Z,99714.44
2023-04-16T08:16:45.538Z,99726.00
2023-04-16T08:19:13.336Z,99725.19
2023-04-16T08:21:40.933Z,99728.63
2023-04-16T08:24:08.595Z,99722.56
2023-04-16T08:26:36.005Z,99722.84
2023-04-16T08:29:03.625Z,99724.00
2023-04-16T08:31:31.832Z,99727.03
2023-04-16T08:34:00.411Z,99726.91
2023-04-16T08:36:27.963Z,99734.22
2023-04-16T08:38:55.658Z,99740.03
2023-04-16T08:41:24.240Z,99739.06
2023-04-16T08:43:54.433Z,99735.84
2023-04-16T08:46:22.973Z,99734.22
2023-04-16T08:48:51.873Z,99735.03
2023-04-16T08:51:20.021Z,99745.81
2023-04-16T08:53:54.149Z,99742.28
2023-04-16T08:56:23.614Z,99739.66
2023-04-16T08:58:51.895Z,99737.97
2023-04-16T09:01:19.905Z,99739.56
2023-04-16T09:03:48.774Z,99747.38
2023-04-16T09:06:17.500Z,99748.44
2023-04-16T09:08:46.293Z,99751.97
2023-04-16T09:11:14.427Z,99748.91
2023-04-16T09:13:42.068Z,99754.28
2023-04-16T09:16:09.980Z,99758.50
2023-04-16T09:18:37.590Z,99761.50
2023-04-16T09:21:05.643Z,99758.47
2023-04-16T09:23:33.326Z,99766.69
2023-04-16T09:26:00.886Z,99774.13
2023-04-16T09:28:47.762Z,99769.62
2023-04-16T09:31:19.439Z,99774.38
2023-04-16T09:34:07.374Z,99771.50
2023-04-16T09:36:35.868Z,99773.84
2023-04-16T09:39:03.929Z,99766.25
2023-04-16T09:41:32.887Z,99774.56
2023-04-16T09:44:04.134Z,99767.19
2023-04-16T09:46:34.965Z,99774.00
2023-04-16T09:49:09.781Z,99773.81
2023-04-16T09:51:38.863Z,99779.69
2023-04-16T09:54:06.827Z,99778.13
2023-04-16T09:56:40.326Z,99780.75
2023-04-16T09:59:09.445Z,99774.91
2023-04-16T10:01:37.799Z,99777.38
2023-04-16T10:04:06.962Z,99775.88
2023-04-16T10:06:34.426Z,99777.63
2023-04-16T10:09:01.958Z,99770.22
2023-04-16T10:11:29.873Z,99766.00
2023-04-16T10:13:57.213Z,99763.75
2023-04-16T10:16:25.022Z,99761.12
2023-04-16T10:18:54.132Z,99764.13
2023-04-16T10:21:21.664Z,99766.47
2023-04-16T10:23:52.540Z,99757.47
2023-04-16T10:26:21.273Z,99759.81
2023-04-16T10:28:48.722Z,99753.03
2023-04-16T10:31:16.401Z,99752.97
2023-04-16T10:33:44.463Z,99750.28
2023-04-16T10:36:16.451Z,99750.16
2023-04-16T10:38:43.975Z,99747.75
2023-04-16T10:41:11.398Z,99752.81
2023-04-16T10:43:41.342Z,99741.72
2023-04-16T10:46:31.253Z,99739.88
2023-04-16T10:49:03.229Z,99742.28
2023-04-16T10:51:34.819Z,99739.66
2023-04-16T10:54:17.115Z,99740.03
2023-04-16T10:56:45.891Z,99736.63
2023-04-16T10:59:13.636Z,99727.81
2023-04-16T11:01:45.044Z,99727.47
2023-04-16T11:04:21.835Z,99727.94
2023-04-16T11:07:11.637Z,99733.56
2023-04-16T11:09:59.296Z,99718.91
2023-04-16T11:12:37.544Z,99724.03
2023-04-16T11:15:07.868Z,99720.72
2023-04-16T11:17:42.919Z,99721.78
2023-04-16T11:20:19.332Z,99725.84
2023-04-16T11:22:48.928Z,99728.22
2023-04-16T11:25:34.453Z,99720.72
2023-04-16T11:28:02.333Z,99718.56
2023-04-16T11:30:33.853Z,99718.47
2023-04-16T11:33:11.632Z,99712.25
2023-04-16T11:35:39.937Z,99719.16
2023-04-16T11:38:07.715Z,99717.38
2023-04-16T11:40:36.048Z,99729.06
2023-04-16T11:43:15.322Z,99730.19
2023-04-16T11:46:12.791Z,99724.13
2023-04-16T11:48:51.793Z,99718.91
2023-04-16T11:51:20.599Z,99715.12
2023-04-16T11:53:50.050Z,99712.44
2023-04-16T11:56:28.675Z,99706.53
2023-04-16T11:59:13.434Z,99705.13
2023-04-16T12:01:42.111Z,99701.88
2023-04-16T12:04:09.968Z,99702.75
2023-04-16T12:06:37.795Z,99695.44
2023-04-16T12:09:24.989Z,99700.50
2023-04-16T12:11:53.430Z,99693.63
2023-04-16T12:14:21.489Z,99697.91
2023-04-16T12:16:48.948Z,99692.78
2023-04-16T12:19:16.736Z,99700.38
2023-04-16T12:21:46.337Z,99692.97
2023-04-16T12:24:20.881Z,99695.19
2023-04-16T12:26:52.593Z,99695.75
2023-04-16T12:29:27.498Z,99699.34
2023-04-16T12:31:55.321Z,99691.06
2023-04-16T12:34:28.993Z,99697.03
2023-04-16T12:37:10.600Z,99703.97
2023-04-16T12:39:38.020Z,99699.59
2023-04-16T12:42:09.839Z,99703.84
2023-04-16T12:44:38.095Z,99694.81
2023-04-16T12:47:05.653Z,99694.72
2023-04-16T12:49:33.175Z,99695.69
2023-04-16T12:52:01.935Z,99691.50
2023-04-16T12:54:31.127Z,99694.63
2023-04-16T12:56:58.536Z,99692.25
2023-04-16T12:59:26.218Z,99684.16
2023-04-16T13:01:53.711Z,99684.00
2023-04-16T13:04:24.197Z,99682.19
2023-04-16T13:06:53.358Z,99684.38
2023-04-16T13:09:21.016Z,99679.88
2023-04-16T13:11:48.433Z,99675.94
2023-04-16T13:14:16.073Z,99671.56
2023-04-16T13:16:43.460Z,99667.94
2023-04-16T13:19:11.107Z,99664.41
2023-04-16T13:21:39.125Z,99667.38
2023-04-16T13:24:06.872Z,99663.91
2023-04-16T13:26:34.230Z,99666.37
2023-04-16T13:29:01.968Z,99653.53
2023-04-16T13:31:29.514Z,99657.25
2023-04-16T13:33:56.955Z,99652.63
2023-04-16T13:36:26.983Z,99655.09
2023-04-16T13:38:54.929Z,99648.38
2023-04-16T13:41:22.396Z,99640.56
2023-04-16T13:43:50.051Z,99649.28
2023-04-16T13:46:18.885Z,99644.97
2023-04-16T13:48:46.878Z,99648.41
2023-04-16T13:51:15.535Z,99644.88
2023-04-16T13:53:43.011Z,99644.66
2023-04-16T13:56:11.116Z,99637.50
2023-04-16T13:58:38.914Z,99642.69
2023-04-16T14:01:06.414Z,99633.88
2023-04-16T14:03:38.501Z,99633.63
2023-04-16T14:06:06.093Z,99641.78
2023-04-16T14:08:33.785Z,99641.84
2023-04-16T14:11:01.441Z,99638.19
2023-04-16T14:13:28.972Z,99635.78
2023-04-16T14:15:57.162Z,99647.28
2023-04-16T14:18:24.604Z,99637.25
2023-04-16T14:20:52.234Z,99645.91
2023-04-16T14:23:19.956Z,99634.78
2023-04-16T14:25:47.513Z,99640.06
2023-04-16T14:28:15.809Z,99633.22
2023-04-16T14:30:43.650Z,99636.75
2023-04-16T14:33:11.453Z,99629.63
2023-04-16T14:35:38.870Z,99629.50
2023-04-16T14:38:06.594Z,99630.47
2023-04-16T14:40:34.535Z,99626.75
2023-04-16T14:43:02.100Z,99628.94
2023-04-16T14:45:30.893Z,99630.31
2023-04-16T14:47:58.368Z,99626.28
2023-04-16T14:50:25.795Z,99619.13
2023-04-16T14:52:54.541Z,99629.75
2023-04-16T14:55:21.941Z,99626.25
2023-04-16T14:57:49.325Z,99629.25
2023-04-16T15:00:18.709Z,99627.13
2023-04-16T15:02:48.121Z,99618.78
2023-04-16T15:05:15.897Z,99627.63
2023-04-16T15:07:43.667Z,99617.19
2023-04-16T15:10:12.831Z,99622.94
2023-04-16T15:12:40.374Z,99617.94
2023-04-16T15:15:09.002Z,99615.13
2023-04-16T15:17:36.692Z,99616.59
2023-04-16T15:20:10.645Z,99617.31
2023-04-16T15:22:38.539Z,99613.81
2023-04-16T15:25:06.694Z,99618.94
2023-04-16T15:27:34.366Z,99616.41
2023-04-16T15:30:02.226Z,99621.06
2023-04-16T15:32:31.154Z,99613.81
2023-04-16T15:34:59.875Z,99604.97
2023-04-16T15:37:27.565Z,99612.03
2023-04-16T15:39:54.987Z,99610.31
2023-04-16T15:42:23.619Z,99607.56
2023-04-16T15:44:51.407Z,99617.50
2023-04-16T15:47:18.886Z,99621.91
2023-04-16T15:49:46.256Z,99614.91
2023-04-16T15:52:13.947Z,99613.47
2023-04-16T15:54:42.978Z,99622.34
2023-04-16T15:57:10.535Z,99620.25
2023-04-16T15:59:38.278Z,99616.62
2023-04-16T16:02:05.934Z,99619.56
2023-04-16T16:04:33.854Z,99619.25
2023-04-16T16:07:02.805Z,99619.91
2023-04-16T16:09:30.509Z,99614.72
2023-04-16T16:11:59.714Z,99615.31
2023-04-16T16:14:27.187Z,99618.91
2023-04-16T16:16:54.637Z,99627.22
2023-04-16T16:19:22.303Z,99618.81
2023-04-16T16:21:49.652Z,99625.84
2023-04-16T16:24:17.301Z,99625.59
2023-04-16T16:26:45.011Z,99630.94
2023-04-16T16:29:12.970Z,99626.53
2023-04-16T16:31:40.597Z,99623.03
2023-04-16T16:34:09.890Z,99627.25
2023-04-16T16:36:40.272Z,99629.34
2023-04-16T16:39:07.927Z,99632.97
2023-04-16T16:41:41.779Z,99627.84
2023-04-16T16:44:09.653Z,99627.00
2023-04-16T16:46:37.268Z,99631.78
2023-04-16T16:49:06.022Z,99628.72
2023-04-16T16:51:33.934Z,99632.25
2023-04-16T16:54:01.455Z,99633.75
2023-04-16T16:56:28.848Z,99640.28
2023-04-16T16:58:56.737Z,99636.06
2023-04-16T17:01:25.594Z,99643.16
2023-04-16T17:03:53.113Z,99634.16
2023-04-16T17:06:21.424Z,99636.94
2023-04-16T17:08:48.929Z,99642.69
2023-04-16T17:11:16.728Z,99639.97
2023-04-16T17:13:44.623Z,99637.00
2023-04-16T17:16:13.187Z,99652.94
2023-04-16T17:18:40.857Z,99644.00
2023-04-16T17:21:08.527Z,99650.94
2023-04-16T17:23:36.179Z,99652.25
2023-04-16T17:26:03.603Z,99655.50
2023-04-16T17:28:31.279Z,99651.19
2023-04-16T17:30:59.458Z,99661.56
2023-04-16T17:33:27.185Z,99652.25
2023-04-16T17:35:54.913Z,99657.63
2023-04-16T17:38:22.353Z,99662.19
2023-04-16T17:40:49.834Z,99663.59
2023-04-16T17:43:17.526Z,99669.72
2023-04-16T17:45:45.057Z,99673.22
2023-04-16T17:48:12.806Z,99680.25
2023-04-16T17:50:40.533Z,99678.25
2023-04-16T17:53:07.917Z,99681.50
2023-04-16T17:55:35.725Z,99687.97
2023-04-16T17:58:04.252Z,99680.84
2023-04-16T18:00:31.729Z,99684.03
2023-04-16T18:03:00.084Z,99689.56
2023-04-16T18:05:27.747Z,99689.97
2023-04-16T18:07:55.637Z,99690.34
2023-04-16T18:10:23.339Z,99680.78
2023-04-16T18:12:50.699Z,99690.91
2023-04-16T18:15:18.155Z,99691.53
2023-04-16T18:17:46.183Z,99688.00
2023-04-16T18:20:16.802Z,99684.31
2023-04-16T18:22:44.226Z,99697.63
2023-04-16T18:25:12.158Z,99693.34
2023-04-16T18:27:39.659Z,99693.41
2023-04-16T18:30:07.557Z,99695.91
2023-04-16T18:32:36.476Z,99709.84
2023-04-16T18:35:06.317Z,99709.25
2023-04-16T18:37:33.702Z,99718.94
2023-04-16T18:40:01.699Z,99716.94
2023-04-16T18:42:29.415Z,99723.12
2023-04-16T18:44:57.017Z,99717.22
2023-04-16T18:47:24.996Z,99721.25
2023-04-16T18:49:52.506Z,99721.75
2023-04-16T18:52:19.979Z,99710.56
2023-04-16T18:54:47.659Z,99715.66
2023-04-16T18:57:15.080Z,99719.97
2023-04-16T18:59:42.462Z,99714.78
2023-04-16T19:02:10.231Z,99710.19
2023-04-16T19:04:38.239Z,99705.47
2023-04-16T19:07:05.782Z,99702.72
2023-04-16T19:09:33.485Z,99694.97
2023-04-16T19:12:01.754Z,99692.75
2023-04-16T19:14:29.176Z,99693.66
2023-04-16T19:16:56.905Z,99696.41
2023-04-16T19:19:24.363Z,99685.09
2023-04-16T19:21:52.042Z,99691.69
2023-04-16T19:24:19.921Z,99681.03
2023-04-16T19:26:47.404Z,99689.66
2023-04-16T19:29:14.808Z,99688.25
2023-04-16T19:31:42.489Z,99689.34
2023-04-16T19:34:10.190Z,99680.81
2023-04-16T19:36:37.554Z,99689.72
2023-04-16T19:39:05.274Z,99689.63
2023-04-16T19:41:32.995Z,99674.16
2023-04-16T19:44:00.592Z,99676.91
2023-04-16T19:46:28.343Z,99678.94
2023-04-16T19:48:56.808Z,99684.47
2023-04-16T19:51:24.546Z,99685.75
2023-04-16T19:53:53.261Z,99691.84
2023-04-16T19:56:20.702Z,99696.16
2023-04-16T19:58:48.140Z,99692.59
2023-04-16T20:01:15.903Z,99683.13
2023-04-16T20:03:43.670Z,99682.03
2023-04-16T20:06:11.351Z,99677.38
2023-04-16T20:08:38.843Z,99682.50
2023-04-16T20:11:08.498Z,99686.28
2023-04-16T20:13:37.613Z,99684.78
2023-04-16T20:16:05.679Z,99684.66
2023-04-16T20:18:41.463Z,99688.75
2023-04-16T20:21:09.828Z,99685.16
2023-04-16T20:23:37.518Z,99683.34
2023-04-16T20:26:04.970Z,99682.38
2023-04-16T20:28:32.559Z,99676.88
2023-04-16T20:31:00.286Z,99670.00
2023-04-16T20:33:28.026Z,99675.69
2023-04-16T20:35:56.217Z,99673.84
2023-04-16T20:38:24.034Z,99662.25
2023-04-16T20:40:58.135Z,99671.00
2023-04-16T20:43:26.145Z,99677.19
2023-04-16T20:45:53.580Z,99672.91
2023-04-16T20:48:21.032Z,99675.59
2023-04-16T20:50:48.760Z,99673.87
2023-04-16T20:53:16.319Z,99676.06
2023-04-16T20:55:43.754Z,99681.44
2023-04-16T20:58:11.606Z,99678.19
2023-04-16T21:00:38.954Z,99669.31
2023-04-16T21:03:06.768Z,99672.78
2023-04-16T21:05:34.520Z,99668.75
2023-04-16T21:08:02.027Z,99664.47
2023-04-16T21:10:29.406Z,99659.53
2023-04-16T21:12:57.068Z,99658.81
2023-04-16T21:15:24.555Z,99661.38
2023-04-16T21:17:51.988Z,99665.91
2023-04-16T21:20:19.907Z,99655.28
2023-04-16T21:22:47.351Z,99668.66
2023-04-16T21:25:14.809Z,99670.00
2023-04-16T21:27:42.502Z,99667.06
2023-04-16T21:30:10.320Z,99672.50
2023-04-16T21:32:38.079Z,99666.22
2023-04-16T21:35:06.351Z,99661.84
2023-04-16T21:37:33.948Z,99673.59
2023-04-16T21:40:01.343Z,99674.94
2023-04-16T21:42:29.137Z,99665.53
2023-04-16T21:44:56.563Z,99662.94
2023-04-16T21:47:24.034Z,99659.16
2023-04-16T21:49:51.781Z,99647.38
2023-04-16T21:52:19.209Z,99645.53
2023-04-16T21:54:46.779Z,99638.78
2023-04-16T21:57:14.764Z,99633.22
2023-04-16T21:59:42.253Z,99631.69
2023-04-16T22:02:09.782Z,99639.25
2023-04-16T22:04:38.761Z,99646.97
2023-04-16T22:07:08.837Z,99648.41
2023-04-16T22:09:36.591Z,99653.19
2023-04-16T22:12:06.918Z,99645.72
2023-04-16T22:14:34.709Z,99643.69
2023-04-16T22:17:03.487Z,99648.16
2023-04-16T22:19:31.820Z,99639.56
2023-04-16T22:21:59.215Z,99641.31
2023-04-16T22:24:26.699Z,99635.34
2023-04-16T22:26:54.419Z,99630.53
2023-04-16T22:29:21.844Z,99636.44
2023-04-16T22:31:49.439Z,99640.16
2023-04-16T22:34:17.081Z,99632.31
2023-04-16T22:36:44.538Z,99623.34
2023-04-16T22:39:12.185Z,99621.72
2023-04-16T22:41:40.499Z,99625.78
2023-04-16T22:44:08.123Z,99619.72
2023-04-16T22:46:35.904Z,99622.81
2023-04-16T22:49:03.655Z,99629.66
2023-04-16T22:51:31.104Z,99632.19
2023-04-16T22:53:58.548Z,99628.37
2023-04-16T22:56:28.898Z,99626.44
2023-04-16T22:58:56.717Z,99622.31
2023-04-16T23:01:24.450Z,99626.03
2023-04-16T23:03:52.445Z,99618.19
2023-04-16T23:06:19.902Z,99623.22
2023-04-16T23:08:47.337Z,99620.97
2023-04-16T23:11:15.528Z,99619.47
2023-04-16T23:13:43.004Z,99624.81
2023-04-16T23:16:10.880Z,99620.53
2023-04-16T23:18:38.662Z,99614.13
2023-04-16T23:21:06.117Z,99612.78
2023-04-16T23:23:33.530Z,99618.22
2023-04-16T23:26:02.707Z,99616.19
2023-04-16T23:28:30.106Z,99605.13
2023-04-16T23:30:57.530Z,99601.00
2023-04-16T23:33:25.252Z,99606.22
2023-04-16T23:35:52.638Z,99609.44
2023-04-16T23:38:20.317Z,99602.75
2023-04-16T23:40:47.986Z,99602.81
2023-04-16T23:43:15.410Z,99597.59
2023-04-16T23:45:42.920Z,99594.97
2023-04-16T23:48:10.666Z,99591.44
2023-04-16T23:50:38.123Z,99594.31
2023-04-16T23:53:05.601Z,99596.09
2023-04-16T23:55:33.262Z,99589.03
2023-04-16T23:58:00.902Z,99590.91
